sensor_id;sensor_type;location;lat;lon;timestamp;P1;durP1;ratioP1;P2;durP2;ratioP2
37164;SDS011;23057;48.554;14.454;2023-12-29T00:00:26;4.15;;;2.47;;
37164;SDS011;23057;48.554;14.454;2023-12-29T00:02:57;4.13;;;2.33;;
37164;SDS011;23057;48.554;14.454;2023-12-29T00:05:27;4.40;;;2.55;;
37164;SDS011;23057;48.554;14.454;2023-12-29T00:07:58;4.32;;;2.28;;
37164;SDS011;23057;48.554;14.454;2023-12-29T00:10:29;4.00;;;2.53;;
37164;SDS011;23057;48.554;14.454;2023-12-29T00:13:00;3.90;;;2.38;;
37164;SDS011;23057;48.554;14.454;2023-12-29T00:15:31;4.05;;;2.70;;
37164;SDS011;23057;48.554;14.454;2023-12-29T00:18:01;2.47;;;1.58;;
37164;SDS011;23057;48.554;14.454;2023-12-29T00:20:32;3.15;;;1.67;;
37164;SDS011;23057;48.554;14.454;2023-12-29T00:23:03;2.25;;;1.80;;
37164;SDS011;23057;48.554;14.454;2023-12-29T00:25:37;3.67;;;1.50;;
37164;SDS011;23057;48.554;14.454;2023-12-29T00:28:09;8.45;;;1.63;;
37164;SDS011;23057;48.554;14.454;2023-12-29T00:30:39;3.67;;;2.08;;
37164;SDS011;23057;48.554;14.454;2023-12-29T00:33:10;2.60;;;1.60;;
37164;SDS011;23057;48.554;14.454;2023-12-29T00:35:41;3.17;;;1.90;;
37164;SDS011;23057;48.554;14.454;2023-12-29T00:38:12;2.88;;;2.03;;
37164;SDS011;23057;48.554;14.454;2023-12-29T00:40:43;2.80;;;1.70;;
37164;SDS011;23057;48.554;14.454;2023-12-29T00:43:13;2.72;;;1.55;;
37164;SDS011;23057;48.554;14.454;2023-12-29T00:45:44;3.92;;;2.08;;
37164;SDS011;23057;48.554;14.454;2023-12-29T00:48:15;3.53;;;2.00;;
37164;SDS011;23057;48.554;14.454;2023-12-29T00:50:46;3.20;;;2.15;;
37164;SDS011;23057;48.554;14.454;2023-12-29T00:53:17;2.47;;;1.38;;
37164;SDS011;23057;48.554;14.454;2023-12-29T00:55:48;4.28;;;1.75;;
37164;SDS011;23057;48.554;14.454;2023-12-29T00:58:18;1.90;;;1.30;;
37164;SDS011;23057;48.554;14.454;2023-12-29T01:00:49;3.10;;;1.58;;
37164;SDS011;23057;48.554;14.454;2023-12-29T01:03:20;2.55;;;1.52;;
37164;SDS011;23057;48.554;14.454;2023-12-29T01:05:51;3.83;;;1.70;;
37164;SDS011;23057;48.554;14.454;2023-12-29T01:08:22;3.35;;;2.00;;
37164;SDS011;23057;48.554;14.454;2023-12-29T01:10:52;2.75;;;1.83;;
37164;SDS011;23057;48.554;14.454;2023-12-29T01:13:23;3.42;;;1.70;;
37164;SDS011;23057;48.554;14.454;2023-12-29T01:15:54;2.22;;;1.50;;
37164;SDS011;23057;48.554;14.454;2023-12-29T01:18:25;3.90;;;2.20;;
37164;SDS011;23057;48.554;14.454;2023-12-29T01:20:56;4.45;;;1.92;;
37164;SDS011;23057;48.554;14.454;2023-12-29T01:23:26;3.40;;;1.92;;
37164;SDS011;23057;48.554;14.454;2023-12-29T01:25:58;2.40;;;1.58;;
37164;SDS011;23057;48.554;14.454;2023-12-29T01:28:28;4.35;;;1.95;;
37164;SDS011;23057;48.554;14.454;2023-12-29T01:30:59;4.03;;;2.33;;
37164;SDS011;23057;48.554;14.454;2023-12-29T01:33:30;3.10;;;2.03;;
37164;SDS011;23057;48.554;14.454;2023-12-29T01:36:01;2.80;;;1.88;;
37164;SDS011;23057;48.554;14.454;2023-12-29T01:38:32;4.05;;;2.00;;
37164;SDS011;23057;48.554;14.454;2023-12-29T01:41:03;4.45;;;2.28;;
37164;SDS011;23057;48.554;14.454;2023-12-29T01:43:33;3.58;;;2.05;;
37164;SDS011;23057;48.554;14.454;2023-12-29T01:46:04;3.55;;;1.90;;
37164;SDS011;23057;48.554;14.454;2023-12-29T01:48:35;4.28;;;2.00;;
37164;SDS011;23057;48.554;14.454;2023-12-29T01:51:06;3.50;;;1.70;;
37164;SDS011;23057;48.554;14.454;2023-12-29T01:53:37;2.72;;;1.70;;
37164;SDS011;23057;48.554;14.454;2023-12-29T01:56:08;4.22;;;2.05;;
37164;SDS011;23057;48.554;14.454;2023-12-29T01:58:40;3.47;;;2.22;;
37164;SDS011;23057;48.554;14.454;2023-12-29T02:01:11;3.13;;;1.85;;
37164;SDS011;23057;48.554;14.454;2023-12-29T02:03:44;3.22;;;1.67;;
37164;SDS011;23057;48.554;14.454;2023-12-29T02:06:16;3.03;;;1.77;;
37164;SDS011;23057;48.554;14.454;2023-12-29T02:08:48;4.75;;;2.47;;
37164;SDS011;23057;48.554;14.454;2023-12-29T02:11:21;3.30;;;2.20;;
37164;SDS011;23057;48.554;14.454;2023-12-29T02:13:52;6.28;;;2.00;;
37164;SDS011;23057;48.554;14.454;2023-12-29T02:16:29;5.20;;;2.15;;
37164;SDS011;23057;48.554;14.454;2023-12-29T02:22:16;3.38;;;2.47;;
37164;SDS011;23057;48.554;14.454;2023-12-29T02:24:48;2.88;;;2.28;;
37164;SDS011;23057;48.554;14.454;2023-12-29T02:30:54;4.20;;;2.42;;
37164;SDS011;23057;48.554;14.454;2023-12-29T02:33:48;4.05;;;1.98;;
37164;SDS011;23057;48.554;14.454;2023-12-29T02:36:22;3.78;;;2.08;;
37164;SDS011;23057;48.554;14.454;2023-12-29T02:38:54;3.50;;;1.85;;
37164;SDS011;23057;48.554;14.454;2023-12-29T02:41:25;3.47;;;2.10;;
37164;SDS011;23057;48.554;14.454;2023-12-29T02:43:56;5.35;;;2.47;;
37164;SDS011;23057;48.554;14.454;2023-12-29T02:46:29;4.68;;;2.00;;
37164;SDS011;23057;48.554;14.454;2023-12-29T02:49:00;3.15;;;2.03;;
37164;SDS011;23057;48.554;14.454;2023-12-29T02:51:31;3.78;;;2.15;;
37164;SDS011;23057;48.554;14.454;2023-12-29T02:54:01;5.30;;;2.85;;
37164;SDS011;23057;48.554;14.454;2023-12-29T02:56:33;4.20;;;2.53;;
37164;SDS011;23057;48.554;14.454;2023-12-29T02:59:05;3.28;;;2.05;;
37164;SDS011;23057;48.554;14.454;2023-12-29T03:01:36;4.82;;;1.80;;
37164;SDS011;23057;48.554;14.454;2023-12-29T03:04:06;4.90;;;2.30;;
37164;SDS011;23057;48.554;14.454;2023-12-29T03:06:37;2.95;;;1.95;;
37164;SDS011;23057;48.554;14.454;2023-12-29T03:09:08;4.25;;;2.10;;
37164;SDS011;23057;48.554;14.454;2023-12-29T03:11:39;3.03;;;1.63;;
37164;SDS011;23057;48.554;14.454;2023-12-29T03:14:10;5.80;;;2.42;;
37164;SDS011;23057;48.554;14.454;2023-12-29T03:16:40;3.63;;;1.95;;
37164;SDS011;23057;48.554;14.454;2023-12-29T03:19:11;2.90;;;1.60;;
37164;SDS011;23057;48.554;14.454;2023-12-29T03:21:42;2.97;;;1.73;;
37164;SDS011;23057;48.554;14.454;2023-12-29T03:24:13;3.25;;;1.70;;
37164;SDS011;23057;48.554;14.454;2023-12-29T03:26:43;3.38;;;2.20;;
37164;SDS011;23057;48.554;14.454;2023-12-29T03:29:14;2.45;;;1.88;;
37164;SDS011;23057;48.554;14.454;2023-12-29T03:31:45;2.65;;;1.75;;
37164;SDS011;23057;48.554;14.454;2023-12-29T03:34:16;4.85;;;2.30;;
37164;SDS011;23057;48.554;14.454;2023-12-29T03:36:47;4.22;;;2.30;;
37164;SDS011;23057;48.554;14.454;2023-12-29T03:39:18;4.68;;;2.45;;
37164;SDS011;23057;48.554;14.454;2023-12-29T03:41:48;6.57;;;2.40;;
37164;SDS011;23057;48.554;14.454;2023-12-29T03:44:19;3.58;;;2.20;;
37164;SDS011;23057;48.554;14.454;2023-12-29T03:46:50;5.65;;;2.58;;
37164;SDS011;23057;48.554;14.454;2023-12-29T03:49:21;2.88;;;2.05;;
37164;SDS011;23057;48.554;14.454;2023-12-29T03:51:52;4.57;;;2.13;;
37164;SDS011;23057;48.554;14.454;2023-12-29T03:54:22;3.60;;;2.30;;
37164;SDS011;23057;48.554;14.454;2023-12-29T03:56:53;3.40;;;2.50;;
37164;SDS011;23057;48.554;14.454;2023-12-29T03:59:24;4.03;;;2.30;;
37164;SDS011;23057;48.554;14.454;2023-12-29T04:01:55;4.82;;;2.95;;
37164;SDS011;23057;48.554;14.454;2023-12-29T04:04:26;7.43;;;4.32;;
37164;SDS011;23057;48.554;14.454;2023-12-29T04:06:57;3.78;;;2.40;;
37164;SDS011;23057;48.554;14.454;2023-12-29T04:09:28;3.92;;;2.20;;
37164;SDS011;23057;48.554;14.454;2023-12-29T04:11:58;4.07;;;2.60;;
37164;SDS011;23057;48.554;14.454;2023-12-29T04:14:29;3.42;;;2.38;;
37164;SDS011;23057;48.554;14.454;2023-12-29T04:17:00;6.95;;;2.53;;
37164;SDS011;23057;48.554;14.454;2023-12-29T04:19:34;5.63;;;2.55;;
37164;SDS011;23057;48.554;14.454;2023-12-29T04:22:05;4.38;;;2.38;;
37164;SDS011;23057;48.554;14.454;2023-12-29T04:24:37;6.07;;;2.67;;
37164;SDS011;23057;48.554;14.454;2023-12-29T04:27:08;3.83;;;2.40;;
37164;SDS011;23057;48.554;14.454;2023-12-29T04:29:40;4.90;;;2.50;;
37164;SDS011;23057;48.554;14.454;2023-12-29T04:32:11;4.82;;;2.70;;
37164;SDS011;23057;48.554;14.454;2023-12-29T04:34:42;4.20;;;2.55;;
37164;SDS011;23057;48.554;14.454;2023-12-29T04:37:13;4.28;;;3.00;;
37164;SDS011;23057;48.554;14.454;2023-12-29T04:39:44;5.20;;;3.10;;
37164;SDS011;23057;48.554;14.454;2023-12-29T04:42:14;3.97;;;2.58;;
37164;SDS011;23057;48.554;14.454;2023-12-29T04:44:47;6.07;;;3.58;;
37164;SDS011;23057;48.554;14.454;2023-12-29T04:47:18;5.88;;;4.07;;
37164;SDS011;23057;48.554;14.454;2023-12-29T04:49:49;4.78;;;3.17;;
37164;SDS011;23057;48.554;14.454;2023-12-29T04:52:20;6.38;;;3.33;;
37164;SDS011;23057;48.554;14.454;2023-12-29T04:54:51;4.13;;;2.75;;
37164;SDS011;23057;48.554;14.454;2023-12-29T04:57:22;3.00;;;2.25;;
37164;SDS011;23057;48.554;14.454;2023-12-29T04:59:53;4.95;;;2.75;;
37164;SDS011;23057;48.554;14.454;2023-12-29T05:02:24;4.75;;;2.97;;
37164;SDS011;23057;48.554;14.454;2023-12-29T05:04:54;6.90;;;3.58;;
37164;SDS011;23057;48.554;14.454;2023-12-29T05:07:26;7.18;;;3.88;;
37164;SDS011;23057;48.554;14.454;2023-12-29T05:09:57;4.88;;;3.40;;
37164;SDS011;23057;48.554;14.454;2023-12-29T05:12:28;5.80;;;2.90;;
37164;SDS011;23057;48.554;14.454;2023-12-29T05:14:59;5.15;;;2.92;;
37164;SDS011;23057;48.554;14.454;2023-12-29T05:17:30;6.47;;;3.03;;
37164;SDS011;23057;48.554;14.454;2023-12-29T05:20:01;4.68;;;3.25;;
37164;SDS011;23057;48.554;14.454;2023-12-29T05:22:33;4.05;;;2.70;;
37164;SDS011;23057;48.554;14.454;2023-12-29T05:25:04;5.28;;;3.17;;
37164;SDS011;23057;48.554;14.454;2023-12-29T05:27:35;4.25;;;2.50;;
37164;SDS011;23057;48.554;14.454;2023-12-29T05:30:06;4.97;;;3.00;;
37164;SDS011;23057;48.554;14.454;2023-12-29T05:32:37;6.53;;;3.20;;
37164;SDS011;23057;48.554;14.454;2023-12-29T05:35:08;4.95;;;3.10;;
37164;SDS011;23057;48.554;14.454;2023-12-29T05:37:39;5.80;;;2.78;;
37164;SDS011;23057;48.554;14.454;2023-12-29T05:40:10;6.72;;;2.80;;
37164;SDS011;23057;48.554;14.454;2023-12-29T05:42:41;5.05;;;2.30;;
37164;SDS011;23057;48.554;14.454;2023-12-29T05:45:12;6.55;;;3.17;;
37164;SDS011;23057;48.554;14.454;2023-12-29T05:47:47;6.55;;;3.40;;
37164;SDS011;23057;48.554;14.454;2023-12-29T05:50:18;5.05;;;2.65;;
37164;SDS011;23057;48.554;14.454;2023-12-29T05:52:49;5.10;;;3.10;;
37164;SDS011;23057;48.554;14.454;2023-12-29T05:55:21;6.32;;;3.15;;
37164;SDS011;23057;48.554;14.454;2023-12-29T05:57:52;5.47;;;2.35;;
37164;SDS011;23057;48.554;14.454;2023-12-29T06:00:23;5.65;;;3.08;;
37164;SDS011;23057;48.554;14.454;2023-12-29T06:02:54;4.00;;;3.10;;
37164;SDS011;23057;48.554;14.454;2023-12-29T06:05:25;4.75;;;3.30;;
37164;SDS011;23057;48.554;14.454;2023-12-29T06:07:56;6.32;;;3.05;;
37164;SDS011;23057;48.554;14.454;2023-12-29T06:10:26;9.80;;;3.72;;
37164;SDS011;23057;48.554;14.454;2023-12-29T06:12:57;8.27;;;4.90;;
37164;SDS011;23057;48.554;14.454;2023-12-29T06:15:28;7.10;;;4.30;;
37164;SDS011;23057;48.554;14.454;2023-12-29T06:17:59;11.77;;;6.28;;
37164;SDS011;23057;48.554;14.454;2023-12-29T06:20:30;10.00;;;4.07;;
37164;SDS011;23057;48.554;14.454;2023-12-29T06:23:01;7.07;;;3.88;;
37164;SDS011;23057;48.554;14.454;2023-12-29T06:25:32;10.10;;;6.38;;
37164;SDS011;23057;48.554;14.454;2023-12-29T06:28:04;12.02;;;7.47;;
37164;SDS011;23057;48.554;14.454;2023-12-29T06:30:36;11.77;;;9.55;;
37164;SDS011;23057;48.554;14.454;2023-12-29T06:33:07;4.53;;;2.60;;
37164;SDS011;23057;48.554;14.454;2023-12-29T06:35:38;6.25;;;3.67;;
37164;SDS011;23057;48.554;14.454;2023-12-29T06:38:09;3.38;;;2.15;;
37164;SDS011;23057;48.554;14.454;2023-12-29T06:40:40;4.18;;;2.08;;
37164;SDS011;23057;48.554;14.454;2023-12-29T06:43:10;4.55;;;1.85;;
37164;SDS011;23057;48.554;14.454;2023-12-29T06:45:41;3.55;;;2.03;;
37164;SDS011;23057;48.554;14.454;2023-12-29T06:48:12;3.85;;;2.30;;
37164;SDS011;23057;48.554;14.454;2023-12-29T06:50:43;3.90;;;1.73;;
37164;SDS011;23057;48.554;14.454;2023-12-29T06:53:14;3.78;;;1.90;;
37164;SDS011;23057;48.554;14.454;2023-12-29T06:55:45;2.15;;;1.65;;
37164;SDS011;23057;48.554;14.454;2023-12-29T06:58:16;4.80;;;2.05;;
37164;SDS011;23057;48.554;14.454;2023-12-29T07:00:47;3.03;;;1.52;;
37164;SDS011;23057;48.554;14.454;2023-12-29T07:03:18;3.17;;;1.83;;
37164;SDS011;23057;48.554;14.454;2023-12-29T07:05:48;2.83;;;1.60;;
37164;SDS011;23057;48.554;14.454;2023-12-29T07:08:19;2.92;;;1.83;;
37164;SDS011;23057;48.554;14.454;2023-12-29T07:10:50;4.47;;;1.77;;
37164;SDS011;23057;48.554;14.454;2023-12-29T07:13:21;2.80;;;1.83;;
37164;SDS011;23057;48.554;14.454;2023-12-29T07:15:52;4.07;;;2.35;;
37164;SDS011;23057;48.554;14.454;2023-12-29T07:18:23;4.75;;;2.28;;
37164;SDS011;23057;48.554;14.454;2023-12-29T07:20:54;3.95;;;2.00;;
37164;SDS011;23057;48.554;14.454;2023-12-29T07:23:25;3.63;;;2.10;;
37164;SDS011;23057;48.554;14.454;2023-12-29T07:25:56;4.45;;;2.22;;
37164;SDS011;23057;48.554;14.454;2023-12-29T07:28:27;3.05;;;1.85;;
37164;SDS011;23057;48.554;14.454;2023-12-29T07:30:58;4.13;;;1.85;;
37164;SDS011;23057;48.554;14.454;2023-12-29T07:33:30;3.05;;;1.85;;
37164;SDS011;23057;48.554;14.454;2023-12-29T07:36:01;4.80;;;2.45;;
37164;SDS011;23057;48.554;14.454;2023-12-29T07:38:32;3.90;;;1.73;;
37164;SDS011;23057;48.554;14.454;2023-12-29T07:41:03;3.83;;;2.45;;
37164;SDS011;23057;48.554;14.454;2023-12-29T07:43:34;2.53;;;1.90;;
37164;SDS011;23057;48.554;14.454;2023-12-29T07:46:06;4.75;;;2.13;;
37164;SDS011;23057;48.554;14.454;2023-12-29T07:48:37;3.03;;;1.85;;
37164;SDS011;23057;48.554;14.454;2023-12-29T07:51:09;4.55;;;1.60;;
37164;SDS011;23057;48.554;14.454;2023-12-29T07:53:40;3.97;;;2.05;;
37164;SDS011;23057;48.554;14.454;2023-12-29T07:56:11;2.78;;;1.98;;
37164;SDS011;23057;48.554;14.454;2023-12-29T07:58:42;4.30;;;2.25;;
37164;SDS011;23057;48.554;14.454;2023-12-29T08:01:12;2.95;;;2.00;;
37164;SDS011;23057;48.554;14.454;2023-12-29T08:03:44;3.72;;;2.42;;
37164;SDS011;23057;48.554;14.454;2023-12-29T08:06:15;4.00;;;2.75;;
37164;SDS011;23057;48.554;14.454;2023-12-29T08:08:46;4.20;;;1.70;;
37164;SDS011;23057;48.554;14.454;2023-12-29T08:11:17;3.90;;;2.40;;
37164;SDS011;23057;48.554;14.454;2023-12-29T08:13:48;5.72;;;2.58;;
37164;SDS011;23057;48.554;14.454;2023-12-29T08:16:19;2.85;;;2.05;;
37164;SDS011;23057;48.554;14.454;2023-12-29T08:18:50;3.35;;;1.98;;
37164;SDS011;23057;48.554;14.454;2023-12-29T08:21:21;3.55;;;2.22;;
37164;SDS011;23057;48.554;14.454;2023-12-29T08:23:52;5.60;;;2.30;;
37164;SDS011;23057;48.554;14.454;2023-12-29T08:26:23;3.35;;;2.25;;
37164;SDS011;23057;48.554;14.454;2023-12-29T08:28:54;3.58;;;2.10;;
37164;SDS011;23057;48.554;14.454;2023-12-29T08:31:25;4.28;;;2.40;;
37164;SDS011;23057;48.554;14.454;2023-12-29T08:33:58;3.75;;;2.30;;
37164;SDS011;23057;48.554;14.454;2023-12-29T08:36:29;3.55;;;2.20;;
37164;SDS011;23057;48.554;14.454;2023-12-29T08:39:00;3.22;;;2.47;;
37164;SDS011;23057;48.554;14.454;2023-12-29T08:41:32;13.85;;;7.15;;
37164;SDS011;23057;48.554;14.454;2023-12-29T08:44:03;4.07;;;2.42;;
37164;SDS011;23057;48.554;14.454;2023-12-29T08:46:34;17.00;;;6.25;;
37164;SDS011;23057;48.554;14.454;2023-12-29T08:49:04;5.47;;;3.00;;
37164;SDS011;23057;48.554;14.454;2023-12-29T08:51:35;17.13;;;5.03;;
37164;SDS011;23057;48.554;14.454;2023-12-29T08:54:06;30.70;;;9.00;;
37164;SDS011;23057;48.554;14.454;2023-12-29T08:56:37;8.35;;;3.90;;
37164;SDS011;23057;48.554;14.454;2023-12-29T08:59:08;14.00;;;6.03;;
37164;SDS011;23057;48.554;14.454;2023-12-29T09:01:39;17.92;;;6.57;;
37164;SDS011;23057;48.554;14.454;2023-12-29T09:04:10;16.83;;;6.50;;
37164;SDS011;23057;48.554;14.454;2023-12-29T09:06:41;16.85;;;6.70;;
37164;SDS011;23057;48.554;14.454;2023-12-29T09:09:11;7.82;;;4.35;;
37164;SDS011;23057;48.554;14.454;2023-12-29T09:11:43;9.10;;;4.72;;
37164;SDS011;23057;48.554;14.454;2023-12-29T09:14:16;6.85;;;3.28;;
37164;SDS011;23057;48.554;14.454;2023-12-29T09:16:46;6.25;;;3.22;;
37164;SDS011;23057;48.554;14.454;2023-12-29T09:19:17;8.98;;;4.85;;
37164;SDS011;23057;48.554;14.454;2023-12-29T09:21:48;10.73;;;4.03;;
37164;SDS011;23057;48.554;14.454;2023-12-29T09:24:19;6.30;;;3.78;;
37164;SDS011;23057;48.554;14.454;2023-12-29T09:26:50;5.25;;;3.55;;
37164;SDS011;23057;48.554;14.454;2023-12-29T09:29:22;7.05;;;3.30;;
37164;SDS011;23057;48.554;14.454;2023-12-29T09:31:53;4.60;;;2.92;;
37164;SDS011;23057;48.554;14.454;2023-12-29T09:34:24;5.47;;;3.33;;
37164;SDS011;23057;48.554;14.454;2023-12-29T09:36:55;5.78;;;2.67;;
37164;SDS011;23057;48.554;14.454;2023-12-29T09:39:26;3.00;;;2.10;;
37164;SDS011;23057;48.554;14.454;2023-12-29T09:41:57;4.28;;;2.40;;
37164;SDS011;23057;48.554;14.454;2023-12-29T09:44:31;3.70;;;2.25;;
37164;SDS011;23057;48.554;14.454;2023-12-29T09:47:02;7.38;;;3.97;;
37164;SDS011;23057;48.554;14.454;2023-12-29T09:49:37;6.28;;;3.42;;
37164;SDS011;23057;48.554;14.454;2023-12-29T09:52:11;8.82;;;4.55;;
37164;SDS011;23057;48.554;14.454;2023-12-29T09:54:45;7.05;;;3.90;;
37164;SDS011;23057;48.554;14.454;2023-12-29T09:57:22;4.95;;;2.70;;
37164;SDS011;23057;48.554;14.454;2023-12-29T09:59:54;5.75;;;2.95;;
37164;SDS011;23057;48.554;14.454;2023-12-29T10:02:27;5.50;;;2.70;;
37164;SDS011;23057;48.554;14.454;2023-12-29T10:05:01;3.72;;;2.60;;
37164;SDS011;23057;48.554;14.454;2023-12-29T10:07:37;4.82;;;2.22;;
37164;SDS011;23057;48.554;14.454;2023-12-29T10:10:15;4.10;;;2.13;;
37164;SDS011;23057;48.554;14.454;2023-12-29T10:12:47;2.78;;;2.08;;
37164;SDS011;23057;48.554;14.454;2023-12-29T10:19:00;5.85;;;2.45;;
37164;SDS011;23057;48.554;14.454;2023-12-29T10:21:23;4.45;;;2.17;;
37164;SDS011;23057;48.554;14.454;2023-12-29T10:24:06;8.65;;;2.80;;
37164;SDS011;23057;48.554;14.454;2023-12-29T10:26:49;4.47;;;2.40;;
37164;SDS011;23057;48.554;14.454;2023-12-29T10:29:22;5.50;;;2.60;;
37164;SDS011;23057;48.554;14.454;2023-12-29T10:31:56;3.97;;;2.50;;
37164;SDS011;23057;48.554;14.454;2023-12-29T10:34:27;3.70;;;2.25;;
37164;SDS011;23057;48.554;14.454;2023-12-29T10:36:59;3.85;;;2.17;;
37164;SDS011;23057;48.554;14.454;2023-12-29T10:39:39;6.13;;;2.60;;
37164;SDS011;23057;48.554;14.454;2023-12-29T10:42:26;4.10;;;2.40;;
37164;SDS011;23057;48.554;14.454;2023-12-29T10:45:08;4.43;;;2.60;;
37164;SDS011;23057;48.554;14.454;2023-12-29T10:47:43;2.60;;;1.90;;
37164;SDS011;23057;48.554;14.454;2023-12-29T10:50:14;7.32;;;2.35;;
37164;SDS011;23057;48.554;14.454;2023-12-29T10:52:45;4.07;;;2.00;;
37164;SDS011;23057;48.554;14.454;2023-12-29T10:55:16;2.72;;;2.00;;
37164;SDS011;23057;48.554;14.454;2023-12-29T10:57:49;3.15;;;2.17;;
37164;SDS011;23057;48.554;14.454;2023-12-29T11:00:31;7.40;;;4.40;;
37164;SDS011;23057;48.554;14.454;2023-12-29T11:03:05;12.18;;;4.45;;
37164;SDS011;23057;48.554;14.454;2023-12-29T11:05:37;6.78;;;3.80;;
37164;SDS011;23057;48.554;14.454;2023-12-29T11:08:18;9.88;;;4.53;;
37164;SDS011;23057;48.554;14.454;2023-12-29T11:10:51;14.32;;;5.32;;
37164;SDS011;23057;48.554;14.454;2023-12-29T11:13:25;23.38;;;7.90;;
37164;SDS011;23057;48.554;14.454;2023-12-29T11:15:59;13.70;;;5.55;;
37164;SDS011;23057;48.554;14.454;2023-12-29T11:18:31;16.45;;;5.60;;
37164;SDS011;23057;48.554;14.454;2023-12-29T11:21:04;19.13;;;7.05;;
37164;SDS011;23057;48.554;14.454;2023-12-29T11:23:36;10.02;;;4.90;;
37164;SDS011;23057;48.554;14.454;2023-12-29T11:26:07;9.90;;;5.15;;
37164;SDS011;23057;48.554;14.454;2023-12-29T11:28:38;12.20;;;5.30;;
37164;SDS011;23057;48.554;14.454;2023-12-29T11:31:09;5.40;;;2.92;;
37164;SDS011;23057;48.554;14.454;2023-12-29T11:33:41;9.90;;;4.25;;
37164;SDS011;23057;48.554;14.454;2023-12-29T11:36:28;9.00;;;4.47;;
37164;SDS011;23057;48.554;14.454;2023-12-29T11:44:49;5.63;;;2.47;;
37164;SDS011;23057;48.554;14.454;2023-12-29T11:47:36;6.18;;;3.25;;
37164;SDS011;23057;48.554;14.454;2023-12-29T11:50:08;7.53;;;4.00;;
37164;SDS011;23057;48.554;14.454;2023-12-29T11:52:40;3.70;;;2.55;;
37164;SDS011;23057;48.554;14.454;2023-12-29T11:55:11;4.32;;;2.50;;
37164;SDS011;23057;48.554;14.454;2023-12-29T12:00:20;5.80;;;2.55;;
37164;SDS011;23057;48.554;14.454;2023-12-29T12:03:16;7.50;;;4.40;;
37164;SDS011;23057;48.554;14.454;2023-12-29T12:05:50;13.82;;;7.25;;
37164;SDS011;23057;48.554;14.454;2023-12-29T12:08:26;6.53;;;4.68;;
37164;SDS011;23057;48.554;14.454;2023-12-29T12:14:05;3.78;;;2.10;;
37164;SDS011;23057;48.554;14.454;2023-12-29T12:19:22;6.70;;;2.95;;
37164;SDS011;23057;48.554;14.454;2023-12-29T12:21:57;4.22;;;2.25;;
37164;SDS011;23057;48.554;14.454;2023-12-29T12:24:30;4.03;;;2.22;;
37164;SDS011;23057;48.554;14.454;2023-12-29T12:27:09;3.70;;;2.13;;
37164;SDS011;23057;48.554;14.454;2023-12-29T12:29:40;5.43;;;2.40;;
37164;SDS011;23057;48.554;14.454;2023-12-29T12:32:12;2.88;;;2.05;;
37164;SDS011;23057;48.554;14.454;2023-12-29T12:34:46;5.72;;;3.35;;
37164;SDS011;23057;48.554;14.454;2023-12-29T12:37:27;6.20;;;3.70;;
37164;SDS011;23057;48.554;14.454;2023-12-29T12:40:00;13.77;;;7.60;;
37164;SDS011;23057;48.554;14.454;2023-12-29T12:45:04;6.32;;;4.25;;
37164;SDS011;23057;48.554;14.454;2023-12-29T12:47:51;2.88;;;1.70;;
37164;SDS011;23057;48.554;14.454;2023-12-29T12:50:33;5.68;;;2.20;;
37164;SDS011;23057;48.554;14.454;2023-12-29T12:53:04;3.80;;;1.83;;
37164;SDS011;23057;48.554;14.454;2023-12-29T12:55:39;5.40;;;2.55;;
37164;SDS011;23057;48.554;14.454;2023-12-29T12:58:20;3.22;;;2.00;;
37164;SDS011;23057;48.554;14.454;2023-12-29T13:00:51;3.60;;;1.73;;
37164;SDS011;23057;48.554;14.454;2023-12-29T13:03:22;6.30;;;1.42;;
37164;SDS011;23057;48.554;14.454;2023-12-29T13:05:54;2.08;;;1.85;;
37164;SDS011;23057;48.554;14.454;2023-12-29T13:08:28;3.20;;;1.60;;
37164;SDS011;23057;48.554;14.454;2023-12-29T13:11:00;3.03;;;1.60;;
37164;SDS011;23057;48.554;14.454;2023-12-29T13:13:39;3.55;;;1.85;;
37164;SDS011;23057;48.554;14.454;2023-12-29T13:16:12;2.42;;;1.52;;
37164;SDS011;23057;48.554;14.454;2023-12-29T13:18:43;2.92;;;1.70;;
37164;SDS011;23057;48.554;14.454;2023-12-29T13:21:17;3.08;;;1.90;;
37164;SDS011;23057;48.554;14.454;2023-12-29T13:23:48;2.38;;;1.42;;
37164;SDS011;23057;48.554;14.454;2023-12-29T13:26:19;3.10;;;1.42;;
37164;SDS011;23057;48.554;14.454;2023-12-29T13:28:51;3.15;;;1.73;;
37164;SDS011;23057;48.554;14.454;2023-12-29T13:31:22;3.15;;;1.90;;
37164;SDS011;23057;48.554;14.454;2023-12-29T13:33:57;3.10;;;2.00;;
37164;SDS011;23057;48.554;14.454;2023-12-29T13:36:51;2.42;;;1.38;;
37164;SDS011;23057;48.554;14.454;2023-12-29T13:39:36;4.78;;;1.60;;
37164;SDS011;23057;48.554;14.454;2023-12-29T13:42:53;5.47;;;1.65;;
37164;SDS011;23057;48.554;14.454;2023-12-29T13:45:33;6.32;;;1.67;;
37164;SDS011;23057;48.554;14.454;2023-12-29T13:48:09;2.10;;;1.50;;
37164;SDS011;23057;48.554;14.454;2023-12-29T13:50:48;3.95;;;1.85;;
37164;SDS011;23057;48.554;14.454;2023-12-29T13:53:20;3.17;;;1.63;;
37164;SDS011;23057;48.554;14.454;2023-12-29T13:55:52;2.65;;;1.80;;
37164;SDS011;23057;48.554;14.454;2023-12-29T13:58:23;5.85;;;3.08;;
37164;SDS011;23057;48.554;14.454;2023-12-29T14:00:56;6.20;;;2.60;;
37164;SDS011;23057;48.554;14.454;2023-12-29T14:03:34;4.00;;;2.00;;
37164;SDS011;23057;48.554;14.454;2023-12-29T14:06:29;5.43;;;3.50;;
37164;SDS011;23057;48.554;14.454;2023-12-29T14:09:20;3.03;;;2.08;;
37164;SDS011;23057;48.554;14.454;2023-12-29T14:11:51;3.97;;;2.17;;
37164;SDS011;23057;48.554;14.454;2023-12-29T14:14:22;3.08;;;2.20;;
37164;SDS011;23057;48.554;14.454;2023-12-29T14:16:56;5.22;;;3.03;;
37164;SDS011;23057;48.554;14.454;2023-12-29T14:19:33;4.65;;;2.25;;
37164;SDS011;23057;48.554;14.454;2023-12-29T14:22:06;4.20;;;2.15;;
37164;SDS011;23057;48.554;14.454;2023-12-29T14:24:37;2.92;;;1.98;;
37164;SDS011;23057;48.554;14.454;2023-12-29T14:27:10;5.03;;;2.20;;
37164;SDS011;23057;48.554;14.454;2023-12-29T14:29:42;2.80;;;1.95;;
37164;SDS011;23057;48.554;14.454;2023-12-29T14:32:13;4.00;;;2.28;;
37164;SDS011;23057;48.554;14.454;2023-12-29T14:34:44;5.20;;;1.90;;
37164;SDS011;23057;48.554;14.454;2023-12-29T14:37:22;2.75;;;1.70;;
37164;SDS011;23057;48.554;14.454;2023-12-29T14:39:53;2.65;;;1.70;;
37164;SDS011;23057;48.554;14.454;2023-12-29T14:42:24;6.05;;;3.00;;
37164;SDS011;23057;48.554;14.454;2023-12-29T14:44:55;10.07;;;6.75;;
37164;SDS011;23057;48.554;14.454;2023-12-29T14:47:26;4.05;;;2.70;;
37164;SDS011;23057;48.554;14.454;2023-12-29T14:49:57;4.90;;;2.70;;
37164;SDS011;23057;48.554;14.454;2023-12-29T14:52:28;6.25;;;4.20;;
37164;SDS011;23057;48.554;14.454;2023-12-29T14:54:58;10.80;;;5.00;;
37164;SDS011;23057;48.554;14.454;2023-12-29T14:57:29;12.50;;;5.00;;
37164;SDS011;23057;48.554;14.454;2023-12-29T15:00:00;11.60;;;5.15;;
37164;SDS011;23057;48.554;14.454;2023-12-29T15:02:31;6.55;;;4.47;;
37164;SDS011;23057;48.554;14.454;2023-12-29T15:05:02;10.02;;;6.40;;
37164;SDS011;23057;48.554;14.454;2023-12-29T15:07:33;10.60;;;5.47;;
37164;SDS011;23057;48.554;14.454;2023-12-29T15:10:03;10.60;;;5.68;;
37164;SDS011;23057;48.554;14.454;2023-12-29T15:12:35;6.35;;;3.28;;
37164;SDS011;23057;48.554;14.454;2023-12-29T15:15:06;7.47;;;3.53;;
37164;SDS011;23057;48.554;14.454;2023-12-29T15:17:37;7.35;;;3.97;;
37164;SDS011;23057;48.554;14.454;2023-12-29T15:20:09;10.00;;;5.18;;
37164;SDS011;23057;48.554;14.454;2023-12-29T15:22:41;13.80;;;5.20;;
37164;SDS011;23057;48.554;14.454;2023-12-29T15:25:13;5.97;;;3.50;;
37164;SDS011;23057;48.554;14.454;2023-12-29T15:27:45;3.80;;;2.30;;
37164;SDS011;23057;48.554;14.454;2023-12-29T15:30:16;4.05;;;2.80;;